Time;durP1;ratioP1;P1;durP2;ratioP2;P2;SDS_P1;SDS_P2;PMS_P1;PMS_P2;Temp;Humidity;BMP_temperature;BMP_pressure;BME280_temperature;BME280_humidity;BME280_pressure;Samples;Min_cycle;Max_cycle;Signal;HPM_P1;HPM_P2
2021/09/20 00:01:26;;;;;;;9.65;4.05;;;;;;;;;;5113959;28;20098;-77
2021/09/20 00:03:52;;;;;;;6.50;3.40;;;;;;;;;;5114589;28;20418;-77
2021/09/20 00:06:18;;;;;;;5.88;3.35;;;;;;;;;;5113056;28;20495;-76
2021/09/20 00:08:44;;;;;;;5.15;4.05;;;;;;;;;;5113147;28;20074;-76
2021/09/20 00:11:10;;;;;;;4.70;3.35;;;;;;;;;;5112753;28;20031;-76
2021/09/20 00:13:39;;;;;;;6.63;3.45;;;;;;;;;;5113573;28;20027;-78
2021/09/20 00:16:07;;;;;;;7.70;3.45;;;;;;;;;;5113996;28;20035;-77
2021/09/20 00:18:34;;;;;;;4.50;3.35;;;;;;;;;;5093040;28;20039;-76
2021/09/20 00:21:01;;;;;;;5.63;3.60;;;;;;;;;;5112728;28;20031;-76
2021/09/20 00:23:31;;;;;;;6.65;3.53;;;;;;;;;;5114677;28;20114;-78
2021/09/20 00:25:59;;;;;;;5.07;3.35;;;;;;;;;;5089320;28;20024;-78
2021/09/20 00:28:26;;;;;;;5.20;3.50;;;;;;;;;;5107664;28;20036;-77
2021/09/20 00:30:52;;;;;;;4.50;3.20;;;;;;;;;;5111521;28;20042;-76
2021/09/20 00:33:20;;;;;;;5.38;3.38;;;;;;;;;;5111252;28;20131;-76
2021/09/20 00:35:46;;;;;;;5.13;3.33;;;;;;;;;;5090718;28;20036;-76
2021/09/20 00:38:13;;;;;;;5.75;3.50;;;;;;;;;;5108822;28;20064;-78
2021/09/20 00:40:39;;;;;;;4.88;3.72;;;;;;;;;;5111758;28;20031;-77
2021/09/20 00:43:05;;;;;;;6.72;3.42;;;;;;;;;;5111414;28;20050;-77
2021/09/20 00:45:31;;;;;;;4.07;2.97;;;;;;;;;;5110841;28;20028;-76
2021/09/20 00:47:57;;;;;;;5.72;3.10;;;;;;;;;;5111249;28;20536;-76
2021/09/20 00:50:23;;;;;;;6.28;3.30;;;;;;;;;;5112898;28;20392;-77
2021/09/20 00:52:52;;;;;;;6.30;3.22;;;;;;;;;;5113995;28;20493;-75
2021/09/20 00:55:18;;;;;;;4.10;3.10;;;;;;;;;;5112242;28;20118;-76
2021/09/20 00:57:44;;;;;;;5.03;3.35;;;;;;;;;;5112308;28;20020;-76
2021/09/20 01:00:13;;;;;;;4.05;3.10;;;;;;;;;;5111422;28;20028;-77
2021/09/20 01:02:42;;;;;;;5.18;3.65;;;;;;;;;;5094297;28;20035;-76
2021/09/20 01:05:08;;;;;;;4.68;3.00;;;;;;;;;;5111663;28;20155;-76
2021/09/20 01:07:35;;;;;;;5.95;2.80;;;;;;;;;;5112581;28;20023;-76
2021/09/20 01:10:01;;;;;;;5.47;3.10;;;;;;;;;;5111383;28;20031;-75
2021/09/20 01:12:28;;;;;;;6.53;2.95;;;;;;;;;;5112071;28;20457;-76
2021/09/20 01:14:58;;;;;;;3.80;3.20;;;;;;;;;;5112067;28;20059;-78
2021/09/20 01:17:24;;;;;;;7.07;2.90;;;;;;;;;;5111767;28;20043;-77
2021/09/20 01:19:50;;;;;;;4.78;2.97;;;;;;;;;;5107316;28;20024;-78
2021/09/20 01:22:18;;;;;;;5.65;3.08;;;;;;;;;;5110058;28;20036;-77
2021/09/20 01:25:25;;;;;;;4.88;3.30;;;;;;;;;;5111015;28;20081;-76
2021/09/20 01:27:51;;;;;;;5.57;3.25;;;;;;;;;;4992898;28;20030;-76
2021/09/20 01:30:17;;;;;;;5.68;3.50;;;;;;;;;;5009647;28;20029;-76
2021/09/20 01:32:43;;;;;;;5.65;3.45;;;;;;;;;;4992694;28;20116;-75
2021/09/20 01:35:09;;;;;;;5.93;3.42;;;;;;;;;;5008660;28;20034;-74
2021/09/20 01:37:35;;;;;;;7.47;3.95;;;;;;;;;;5009177;28;20486;-77
2021/09/20 01:40:20;;;;;;;;;;;;;;;;;;;;;
2021/09/20 01:42:47;;;;;;;6.78;4.15;;;;;;;;;;5007851;28;20032;-78
2021/09/20 01:45:13;;;;;;;6.18;4.40;;;;;;;;;;5008242;28;20525;-77
2021/09/20 01:47:40;;;;;;;5.65;4.47;;;;;;;;;;5008061;28;20081;-78
2021/09/20 01:50:07;;;;;;;6.22;4.70;;;;;;;;;;4993380;28;20551;-77
2021/09/20 01:52:33;;;;;;;6.32;4.07;;;;;;;;;;5009490;28;20069;-77
2021/09/20 01:55:04;;;;;;;6.65;4.18;;;;;;;;;;5009032;28;20041;-77
2021/09/20 01:57:30;;;;;;;6.72;4.80;;;;;;;;;;5013021;28;20040;-77
2021/09/20 01:59:56;;;;;;;7.32;5.32;;;;;;;;;;5110122;28;20024;-77
2021/09/20 02:02:22;;;;;;;7.13;4.75;;;;;;;;;;5111508;28;20039;-77
2021/09/20 02:04:48;;;;;;;6.10;4.80;;;;;;;;;;5111243;28;20039;-77
2021/09/20 02:07:15;;;;;;;6.93;4.80;;;;;;;;;;5111536;28;20030;-75
2021/09/20 02:09:45;;;;;;;6.90;4.80;;;;;;;;;;5111662;28;20028;-78
2021/09/20 02:12:14;;;;;;;6.57;5.50;;;;;;;;;;5104915;28;20028;-78
2021/09/20 02:14:40;;;;;;;5.55;4.97;;;;;;;;;;5093177;28;20461;-76
2021/09/20 02:17:06;;;;;;;6.55;4.97;;;;;;;;;;5111130;28;20032;-77
2021/09/20 02:19:32;;;;;;;5.97;4.72;;;;;;;;;;5111168;28;20023;-77
2021/09/20 02:21:58;;;;;;;6.07;4.95;;;;;;;;;;5114362;28;20126;-74
2021/09/20 02:24:28;;;;;;;6.82;4.55;;;;;;;;;;5115546;28;20024;-78
2021/09/20 02:26:55;;;;;;;7.80;5.32;;;;;;;;;;5115559;28;20092;-77
2021/09/20 02:29:21;;;;;;;7.03;5.03;;;;;;;;;;5115547;28;20089;-77
2021/09/20 02:31:47;;;;;;;7.28;5.30;;;;;;;;;;5115037;28;20059;-76
2021/09/20 02:34:13;;;;;;;6.72;5.20;;;;;;;;;;5115277;28;20020;-74
2021/09/20 02:36:39;;;;;;;9.68;5.50;;;;;;;;;;5114757;28;20038;-78
2021/09/20 02:39:05;;;;;;;8.65;5.72;;;;;;;;;;5115147;28;20027;-78
2021/09/20 02:41:31;;;;;;;9.77;5.30;;;;;;;;;;5111694;28;20040;-78
2021/09/20 02:43:57;;;;;;;7.60;5.00;;;;;;;;;;5115104;28;20024;-77
2021/09/20 02:46:23;;;;;;;5.53;4.88;;;;;;;;;;5115288;28;20076;-77
2021/09/20 02:48:49;;;;;;;6.35;4.95;;;;;;;;;;5114173;28;20019;-79
2021/09/20 02:51:16;;;;;;;7.47;4.97;;;;;;;;;;5115357;28;20027;-76
2021/09/20 02:53:42;;;;;;;6.60;5.13;;;;;;;;;;5115244;28;20020;-78
2021/09/20 02:56:13;;;;;;;6.43;5.05;;;;;;;;;;5114651;28;20124;-77
2021/09/20 02:58:39;;;;;;;7.70;5.38;;;;;;;;;;5095755;28;20561;-77
2021/09/20 03:01:14;;;;;;;8.05;5.72;;;;;;;;;;5116014;28;20035;-77
2021/09/20 03:03:41;;;;;;;6.82;5.50;;;;;;;;;;5098432;28;20020;-77
2021/09/20 03:06:07;;;;;;;5.85;5.22;;;;;;;;;;5114398;28;20051;-77
2021/09/20 03:08:33;;;;;;;6.75;5.13;;;;;;;;;;5114528;28;20027;-77
2021/09/20 03:10:59;;;;;;;8.02;4.80;;;;;;;;;;5114442;28;20110;-76
2021/09/20 03:13:25;;;;;;;5.95;4.95;;;;;;;;;;5114466;28;20099;-78
2021/09/20 03:15:51;;;;;;;7.38;4.80;;;;;;;;;;5114404;28;20047;-77
2021/09/20 03:18:17;;;;;;;8.15;4.70;;;;;;;;;;5113074;28;20027;-77
2021/09/20 03:20:44;;;;;;;8.50;5.10;;;;;;;;;;5114582;28;20035;-75
2021/09/20 03:23:10;;;;;;;6.25;4.90;;;;;;;;;;5114143;28;20036;-76
2021/09/20 03:25:36;;;;;;;6.97;4.80;;;;;;;;;;5113996;28;20035;-75
2021/09/20 03:28:04;;;;;;;5.70;4.70;;;;;;;;;;5114719;28;20031;-77
2021/09/20 03:30:30;;;;;;;6.30;5.43;;;;;;;;;;5114407;28;20140;-77
2021/09/20 03:32:56;;;;;;;7.55;5.18;;;;;;;;;;5113264;28;20012;-77
2021/09/20 03:35:23;;;;;;;7.18;5.18;;;;;;;;;;5098543;28;20092;-77
2021/09/20 03:37:49;;;;;;;5.47;4.78;;;;;;;;;;5113563;28;20042;-72
2021/09/20 03:40:16;;;;;;;7.18;5.65;;;;;;;;;;5114149;28;20106;-76
2021/09/20 03:42:45;;;;;;;6.60;5.40;;;;;;;;;;5116423;28;20528;-76
2021/09/20 03:45:12;;;;;;;8.85;5.68;;;;;;;;;;5094966;28;20127;-77
2021/09/20 03:47:38;;;;;;;8.00;5.10;;;;;;;;;;5114294;28;20070;-77
2021/09/20 03:50:06;;;;;;;8.73;5.72;;;;;;;;;;5106912;28;20027;-77
2021/09/20 03:52:56;;;;;;;6.85;5.93;;;;;;;;;;5098744;28;20088;-78
2021/09/20 03:55:22;;;;;;;9.68;6.00;;;;;;;;;;5108300;28;20044;-76
2021/09/20 03:57:48;;;;;;;9.20;6.20;;;;;;;;;;5110249;28;20030;-75
2021/09/20 04:00:17;;;;;;;7.40;5.88;;;;;;;;;;5112530;28;20023;-78
2021/09/20 04:02:43;;;;;;;7.72;6.28;;;;;;;;;;5112266;28;20167;-77
2021/09/20 04:05:10;;;;;;;6.95;5.78;;;;;;;;;;5112897;28;20026;-75
2021/09/20 04:07:40;;;;;;;10.10;6.25;;;;;;;;;;5113526;28;20065;-78
2021/09/20 04:10:07;;;;;;;8.77;5.70;;;;;;;;;;5112926;28;20485;-76
2021/09/20 04:12:42;;;;;;;8.13;6.00;;;;;;;;;;5113075;28;20028;-78
2021/09/20 04:15:10;;;;;;;9.48;5.72;;;;;;;;;;5094327;28;20416;-77
2021/09/20 04:17:36;;;;;;;7.03;5.63;;;;;;;;;;5112698;28;20058;-75
2021/09/20 04:20:04;;;;;;;10.15;6.18;;;;;;;;;;5113032;28;20019;-76
2021/09/20 04:22:30;;;;;;;6.47;5.57;;;;;;;;;;5107242;28;20079;-77
2021/09/20 04:24:56;;;;;;;7.20;6.20;;;;;;;;;;5094244;28;20059;-75
2021/09/20 04:27:24;;;;;;;8.00;6.70;;;;;;;;;;5100886;28;20072;-77
2021/09/20 04:29:50;;;;;;;11.82;7.53;;;;;;;;;;5097444;28;20498;-77
2021/09/20 04:32:17;;;;;;;8.63;7.38;;;;;;;;;;5098589;28;20020;-77
2021/09/20 04:34:43;;;;;;;10.77;7.97;;;;;;;;;;5081331;28;20031;-76
2021/09/20 04:37:10;;;;;;;15.23;8.50;;;;;;;;;;5103708;28;20042;-75
2021/09/20 04:39:36;;;;;;;10.48;7.68;;;;;;;;;;5097439;28;20036;-76
2021/09/20 04:42:02;;;;;;;10.80;7.22;;;;;;;;;;5094875;28;20032;-77
2021/09/20 04:44:29;;;;;;;8.65;6.97;;;;;;;;;;5095572;28;20107;-77
2021/09/20 04:46:55;;;;;;;9.00;7.57;;;;;;;;;;5098857;28;20023;-75
2021/09/20 04:49:21;;;;;;;8.10;7.07;;;;;;;;;;5097117;28;20028;-76
2021/09/20 04:51:47;;;;;;;10.63;8.07;;;;;;;;;;5092056;28;20050;-75
2021/09/20 04:54:13;;;;;;;9.88;7.97;;;;;;;;;;5105422;28;20024;-76
2021/09/20 04:56:39;;;;;;;14.48;8.55;;;;;;;;;;5094652;28;20038;-77
2021/09/20 04:59:05;;;;;;;13.05;8.38;;;;;;;;;;5111041;28;20023;-77
2021/09/20 05:01:31;;;;;;;11.50;8.43;;;;;;;;;;5111671;28;20031;-76
2021/09/20 05:03:57;;;;;;;12.55;7.78;;;;;;;;;;5110689;28;20126;-77
2021/09/20 05:06:23;;;;;;;11.02;7.32;;;;;;;;;;5111794;28;20032;-76
2021/09/20 05:08:49;;;;;;;9.32;7.80;;;;;;;;;;5108423;28;20059;-78
2021/09/20 05:11:19;;;;;;;8.57;7.20;;;;;;;;;;5109477;28;20107;-75
2021/09/20 05:13:45;;;;;;;10.82;7.78;;;;;;;;;;5092431;28;20031;-77
2021/09/20 05:16:11;;;;;;;10.43;8.18;;;;;;;;;;5111511;28;20039;-73
2021/09/20 05:18:49;;;;;;;12.27;8.55;;;;;;;;;;5110571;28;20072;-72
2021/09/20 05:21:15;;;;;;;10.25;9.15;;;;;;;;;;5109561;28;20020;-77
2021/09/20 05:23:44;;;;;;;11.15;9.32;;;;;;;;;;5110974;28;20043;-75
2021/09/20 05:26:14;;;;;;;11.18;9.27;;;;;;;;;;5111281;28;20039;-77
2021/09/20 05:28:40;;;;;;;9.98;8.98;;;;;;;;;;5110611;28;20091;-74
2021/09/20 05:31:07;;;;;;;10.48;9.25;;;;;;;;;;5109608;28;20047;-74
2021/09/20 05:33:36;;;;;;;12.23;9.75;;;;;;;;;;5107692;28;20031;-71
2021/09/20 05:36:04;;;;;;;11.25;10.05;;;;;;;;;;5109303;28;20032;-72
2021/09/20 05:38:31;;;;;;;11.07;8.50;;;;;;;;;;5092533;28;20107;-72
2021/09/20 05:40:57;;;;;;;11.13;9.00;;;;;;;;;;5110333;28;20467;-75
2021/09/20 05:43:23;;;;;;;10.52;8.25;;;;;;;;;;5111031;28;20031;-75
2021/09/20 05:45:49;;;;;;;10.02;8.80;;;;;;;;;;5110811;28;20500;-74
2021/09/20 05:48:22;;;;;;;10.65;8.82;;;;;;;;;;5110237;28;20032;-77
2021/09/20 05:50:49;;;;;;;9.98;8.98;;;;;;;;;;5111667;28;20028;-75
2021/09/20 05:53:15;;;;;;;10.45;9.07;;;;;;;;;;5111532;28;20377;-74
2021/09/20 05:55:41;;;;;;;10.65;8.77;;;;;;;;;;5112726;28;20032;-74
2021/09/20 05:58:10;;;;;;;10.60;8.73;;;;;;;;;;5113420;28;20023;-73
2021/09/20 06:00:36;;;;;;;10.57;9.07;;;;;;;;;;5115432;28;20027;-73
2021/09/20 06:03:02;;;;;;;9.45;8.07;;;;;;;;;;5115579;28;20032;-72
2021/09/20 06:05:30;;;;;;;11.20;8.60;;;;;;;;;;5119124;27;20531;-70
2021/09/20 06:07:56;;;;;;;12.27;8.48;;;;;;;;;;5119761;27;20031;-73
2021/09/20 06:10:24;;;;;;;10.60;8.10;;;;;;;;;;5114654;28;20023;-71
2021/09/20 06:12:52;;;;;;;10.48;7.40;;;;;;;;;;5110283;28;20593;-88
2021/09/20 06:15:18;;;;;;;9.15;8.00;;;;;;;;;;5113345;28;20040;-78
2021/09/20 06:17:44;;;;;;;12.70;7.50;;;;;;;;;;5111487;28;20055;-80
2021/09/20 06:20:11;;;;;;;18.35;7.75;;;;;;;;;;5114814;28;20065;-81
2021/09/20 06:22:37;;;;;;;7.38;6.65;;;;;;;;;;5113500;27;21876;-73
2021/09/20 06:25:03;;;;;;;8.88;7.40;;;;;;;;;;5120001;27;20019;-72
2021/09/20 06:27:32;;;;;;;9.43;8.10;;;;;;;;;;5114390;28;20019;-72
2021/09/20 06:29:58;;;;;;;9.82;7.57;;;;;;;;;;5095770;28;20392;-70
2021/09/20 06:32:30;;;;;;;9.25;7.32;;;;;;;;;;5116099;27;20015;-74
2021/09/20 06:35:12;;;;;;;11.65;7.80;;;;;;;;;;5114761;28;20027;-72
2021/09/20 06:37:39;;;;;;;9.32;8.25;;;;;;;;;;5114494;28;20054;-75
2021/09/20 06:40:06;;;;;;;9.30;7.32;;;;;;;;;;5114422;28;20062;-85
2021/09/20 06:42:32;;;;;;;10.82;8.25;;;;;;;;;;5096617;28;20118;-81
2021/09/20 06:44:58;;;;;;;9.15;8.10;;;;;;;;;;5113796;28;20110;-80
2021/09/20 06:47:45;;;;;;;11.43;8.85;;;;;;;;;;5115266;28;20377;-77
2021/09/20 06:50:24;;;;;;;12.05;8.73;;;;;;;;;;5111465;28;20032;-73
2021/09/20 06:52:50;;;;;;;9.80;8.60;;;;;;;;;;5113363;28;20028;-73
2021/09/20 06:55:16;;;;;;;11.73;8.93;;;;;;;;;;5114467;28;20031;-72
2021/09/20 06:58:04;;;;;;;13.85;7.82;;;;;;;;;;5118374;27;20155;-76
2021/09/20 07:00:34;;;;;;;12.70;8.43;;;;;;;;;;5107179;28;20019;-75
2021/09/20 07:03:13;;;;;;;9.50;7.53;;;;;;;;;;5094839;28;20043;-72
2021/09/20 07:05:40;;;;;;;11.18;7.90;;;;;;;;;;5098466;28;20542;-71
2021/09/20 07:08:06;;;;;;;11.60;8.00;;;;;;;;;;5110740;28;20031;-71
2021/09/20 07:10:44;;;;;;;12.93;7.93;;;;;;;;;;5113270;28;20035;-73
2021/09/20 07:13:15;;;;;;;11.35;8.70;;;;;;;;;;5088720;28;20069;-78
2021/09/20 07:15:44;;;;;;;12.60;9.50;;;;;;;;;;5114237;28;20499;-73
2021/09/20 07:18:10;;;;;;;13.85;8.68;;;;;;;;;;5111364;28;20048;-72
2021/09/20 07:20:39;;;;;;;10.55;8.68;;;;;;;;;;5109512;28;20033;-71
2021/09/20 07:23:05;;;;;;;9.85;8.23;;;;;;;;;;5112719;28;20054;-72
2021/09/20 07:25:37;;;;;;;11.25;8.00;;;;;;;;;;5113831;28;20528;-73
2021/09/20 07:28:16;;;;;;;12.52;8.07;;;;;;;;;;5112904;28;20024;-72
2021/09/20 07:30:43;;;;;;;11.88;8.07;;;;;;;;;;5094632;28;20031;-70
2021/09/20 07:33:10;;;;;;;12.85;7.90;;;;;;;;;;5113383;28;20052;-84
2021/09/20 07:35:36;;;;;;;9.65;7.32;;;;;;;;;;5096012;28;20092;-83
2021/09/20 07:38:05;;;;;;;12.65;7.50;;;;;;;;;;5095790;28;20476;-82
2021/09/20 07:40:31;;;;;;;13.10;7.70;;;;;;;;;;5113781;28;20055;-85
2021/09/20 07:42:58;;;;;;;12.30;7.65;;;;;;;;;;5113388;28;20020;-71
2021/09/20 07:45:29;;;;;;;9.80;7.07;;;;;;;;;;5113463;28;20073;-70
2021/09/20 07:48:09;;;;;;;8.75;7.32;;;;;;;;;;5111100;28;20107;-70
2021/09/20 07:50:38;;;;;;;8.50;7.05;;;;;;;;;;5093277;28;20134;-73
2021/09/20 07:53:12;;;;;;;9.95;7.50;;;;;;;;;;5094536;28;20032;-71
2021/09/20 07:55:42;;;;;;;8.98;7.22;;;;;;;;;;5113232;28;20027;-71
2021/09/20 07:58:12;;;;;;;9.48;7.47;;;;;;;;;;5111372;28;21657;-73
2021/09/20 08:00:44;;;;;;;9.55;7.80;;;;;;;;;;5089811;28;20027;-70
2021/09/20 08:03:28;;;;;;;;;;;;;;;;;;;;;
2021/09/20 08:05:59;;;;;;;8.60;7.38;;;;;;;;;;5120211;27;20023;-71
2021/09/20 08:08:26;;;;;;;9.45;7.25;;;;;;;;;;5111775;28;20035;-72
2021/09/20 08:10:52;;;;;;;9.40;7.35;;;;;;;;;;5091616;28;20390;-69
2021/09/20 08:13:19;;;;;;;7.97;6.95;;;;;;;;;;5111074;28;20028;-69
2021/09/20 08:15:46;;;;;;;9.65;6.97;;;;;;;;;;5112688;28;20085;-68
2021/09/20 08:18:12;;;;;;;9.90;7.72;;;;;;;;;;5111000;28;20029;-69
2021/09/20 08:20:39;;;;;;;11.07;9.70;;;;;;;;;;5111517;28;20095;-68
2021/09/20 08:23:06;;;;;;;16.77;15.13;;;;;;;;;;5112433;28;20047;-70
2021/09/20 08:25:33;;;;;;;15.88;14.38;;;;;;;;;;5112282;28;20055;-70
2021/09/20 08:28:00;;;;;;;16.42;14.52;;;;;;;;;;5112403;28;20016;-70
2021/09/20 08:30:28;;;;;;;16.05;14.45;;;;;;;;;;5110888;28;20027;-71
2021/09/20 08:32:54;;;;;;;15.48;13.52;;;;;;;;;;5111757;28;20026;-71
2021/09/20 08:35:26;;;;;;;14.23;12.90;;;;;;;;;;5112126;28;20057;-72
2021/09/20 08:37:54;;;;;;;13.70;12.30;;;;;;;;;;5112292;28;20031;-76
2021/09/20 08:40:21;;;;;;;14.68;11.48;;;;;;;;;;5112218;28;20059;-73
2021/09/20 08:42:47;;;;;;;12.95;11.60;;;;;;;;;;5105721;28;20065;-73
2021/09/20 08:45:16;;;;;;;13.10;11.77;;;;;;;;;;5106208;28;20420;-73
2021/09/20 08:47:49;;;;;;;13.20;11.93;;;;;;;;;;5111575;28;20126;-74
2021/09/20 08:50:16;;;;;;;14.25;11.73;;;;;;;;;;5093432;28;20035;-73
2021/09/20 08:52:43;;;;;;;12.18;10.57;;;;;;;;;;5111845;28;20114;-79
2021/09/20 08:55:09;;;;;;;9.73;8.32;;;;;;;;;;5093652;28;20506;-68
2021/09/20 08:57:36;;;;;;;11.80;8.10;;;;;;;;;;5112371;28;20122;-79
2021/09/20 09:00:04;;;;;;;9.35;7.30;;;;;;;;;;5112084;28;20027;-80
2021/09/20 09:02:31;;;;;;;9.10;7.53;;;;;;;;;;5111448;28;20385;-84
2021/09/20 09:05:21;;;;;;;10.95;7.57;;;;;;;;;;5112304;28;20154;-82
2021/09/20 09:07:49;;;;;;;8.50;7.60;;;;;;;;;;5010277;28;20033;-83
2021/09/20 09:10:15;;;;;;;13.90;10.75;;;;;;;;;;5007140;28;20072;-85
2021/09/20 09:12:42;;;;;;;16.33;13.45;;;;;;;;;;5002891;28;20038;-73
2021/09/20 09:15:10;;;;;;;17.35;15.05;;;;;;;;;;4998060;28;20039;-83
2021/09/20 09:17:41;;;;;;;18.25;15.05;;;;;;;;;;5007346;28;20098;-74
2021/09/20 09:20:10;;;;;;;19.52;15.93;;;;;;;;;;5006004;28;20042;-74
2021/09/20 09:22:56;;;;;;;19.13;14.90;;;;;;;;;;5001475;28;20459;-74
2021/09/20 09:25:41;;;;;;;21.35;15.80;;;;;;;;;;5000395;28;20504;-75
2021/09/20 09:28:16;;;;;;;20.05;17.77;;;;;;;;;;4967928;28;20038;-74
2021/09/20 09:31:04;;;;;;;21.75;19.45;;;;;;;;;;4980786;28;20030;-71
2021/09/20 09:33:36;;;;;;;22.58;20.25;;;;;;;;;;4985480;28;20066;-71
2021/09/20 09:36:03;;;;;;;20.20;18.10;;;;;;;;;;4990843;28;20101;-72
2021/09/20 09:38:29;;;;;;;19.42;17.52;;;;;;;;;;4981030;28;20149;-71
2021/09/20 09:40:59;;;;;;;12.85;11.45;;;;;;;;;;4984533;28;20092;-71
2021/09/20 09:43:40;;;;;;;12.23;10.05;;;;;;;;;;4989880;28;20828;-70
2021/09/20 09:46:24;;;;;;;13.73;10.00;;;;;;;;;;5078831;28;20408;-69
2021/09/20 09:48:50;;;;;;;13.85;10.07;;;;;;;;;;5089022;28;20035;-70
2021/09/20 09:51:18;;;;;;;10.00;7.57;;;;;;;;;;5089099;28;20028;-70
2021/09/20 09:53:45;;;;;;;10.82;6.35;;;;;;;;;;5089482;28;20024;-69
2021/09/20 09:56:14;;;;;;;10.30;5.90;;;;;;;;;;5089472;28;20036;-68
2021/09/20 09:58:55;;;;;;;6.82;5.70;;;;;;;;;;5075352;28;20456;-70
2021/09/20 10:01:22;;;;;;;8.50;5.30;;;;;;;;;;5108755;28;20026;-69
2021/09/20 10:04:24;;;;;;;6.72;5.00;;;;;;;;;;5110840;28;20028;-69
2021/09/20 10:06:51;;;;;;;5.93;4.60;;;;;;;;;;5090178;28;20020;-74
2021/09/20 10:09:22;;;;;;;5.68;4.65;;;;;;;;;;5110484;28;20798;-72
2021/09/20 10:12:26;;;;;;;7.80;4.82;;;;;;;;;;5109744;28;20376;-73
2021/09/20 10:15:04;;;;;;;6.40;5.07;;;;;;;;;;5012884;28;20437;-70
2021/09/20 10:17:30;;;;;;;9.13;5.18;;;;;;;;;;5018618;28;20090;-72
2021/09/20 10:19:57;;;;;;;41.67;8.05;;;;;;;;;;5026589;28;20029;-72
2021/09/20 10:22:24;;;;;;;8.98;4.43;;;;;;;;;;5028915;28;20037;-84
2021/09/20 10:24:51;;;;;;;6.93;4.70;;;;;;;;;;5016335;28;20079;-85
2021/09/20 10:27:18;;;;;;;5.55;3.78;;;;;;;;;;5025445;28;20029;-87
2021/09/20 10:29:47;;;;;;;5.30;3.88;;;;;;;;;;5025076;28;20025;-74
2021/09/20 10:32:14;;;;;;;5.60;4.07;;;;;;;;;;5033267;28;20031;-71
2021/09/20 10:41:09;;;;;;;6.43;4.97;;;;;;;;;;4972563;28;20050;-77
2021/09/20 10:43:36;;;;;;;8.15;6.07;;;;;;;;;;4961894;28;20038;-76
2021/09/20 10:46:03;;;;;;;7.72;4.70;;;;;;;;;;4972923;28;20029;-73
2021/09/20 10:48:34;;;;;;;7.82;5.18;;;;;;;;;;4973054;28;20120;-74
2021/09/20 10:51:17;;;;;;;6.65;5.72;;;;;;;;;;4972466;28;20059;-69
2021/09/20 10:53:43;;;;;;;8.55;5.65;;;;;;;;;;4964470;28;20027;-69
2021/09/20 10:56:12;;;;;;;7.18;5.18;;;;;;;;;;4970285;28;20062;-70
2021/09/20 10:58:44;;;;;;;5.80;5.20;;;;;;;;;;4964436;28;20039;-68
2021/09/20 11:01:16;;;;;;;6.97;5.57;;;;;;;;;;4969256;28;20070;-70
2021/09/20 11:03:45;;;;;;;15.93;5.72;;;;;;;;;;4971145;28;20030;-69
2021/09/20 11:06:17;;;;;;;7.03;6.10;;;;;;;;;;4971265;28;20045;-70
2021/09/20 11:08:43;;;;;;;6.75;6.05;;;;;;;;;;4971016;28;20063;-70
2021/09/20 11:11:45;;;;;;;10.15;6.07;;;;;;;;;;4968652;28;20031;-69
2021/09/20 11:14:20;;;;;;;6.47;5.78;;;;;;;;;;4930023;28;20050;-69
2021/09/20 11:16:52;;;;;;;7.03;6.30;;;;;;;;;;4967009;28;20047;-69
2021/09/20 11:22:18;;;;;;;7.70;6.53;;;;;;;;;;4979585;28;20540;-78
2021/09/20 11:24:48;;;;;;;9.52;6.47;;;;;;;;;;4959899;28;20031;-73
2021/09/20 11:27:16;;;;;;;7.07;6.20;;;;;;;;;;4974482;28;20039;-73
2021/09/20 11:30:02;;;;;;;7.63;6.63;;;;;;;;;;4980562;28;20075;-79
2021/09/20 11:32:28;;;;;;;7.38;6.65;;;;;;;;;;4999137;28;20031;-76
2021/09/20 11:34:56;;;;;;;7.63;6.80;;;;;;;;;;4976316;28;20385;-73
2021/09/20 11:37:24;;;;;;;9.15;6.70;;;;;;;;;;4970464;28;20094;-73
2021/09/20 11:40:11;;;;;;;7.88;6.22;;;;;;;;;;4955896;28;20028;-77
2021/09/20 11:42:51;;;;;;;6.97;6.28;;;;;;;;;;4988058;28;20043;-75
2021/09/20 11:45:19;;;;;;;6.93;6.22;;;;;;;;;;4976839;28;20504;-73
2021/09/20 11:50:48;;;;;;;8.63;7.13;;;;;;;;;;5284238;22;20111;-74
2021/09/20 11:53:20;;;;;;;6.82;5.78;;;;;;;;;;5031140;28;20021;-73
2021/09/20 11:55:53;;;;;;;7.93;6.18;;;;;;;;;;5052542;28;20474;-71
2021/09/20 11:58:21;;;;;;;5.85;5.25;;;;;;;;;;5034904;28;20035;-73
2021/09/20 12:00:48;;;;;;;6.82;6.10;;;;;;;;;;5050795;28;20064;-70
2021/09/20 12:03:37;;;;;;;7.65;5.78;;;;;;;;;;5052509;28;20055;-72
2021/09/20 12:08:34;;;;;;;6.88;5.82;;;;;;;;;;5031375;28;20247;-77
2021/09/20 12:11:28;;;;;;;7.60;6.65;;;;;;;;;;5033924;28;20410;-75
2021/09/20 12:13:54;;;;;;;9.10;7.60;;;;;;;;;;5029093;28;20060;-73
2021/09/20 12:16:25;;;;;;;8.68;6.80;;;;;;;;;;5044019;28;20487;-75
2021/09/20 12:26:44;;;;;;;8.20;7.15;;;;;;;;;;5364951;22;20173;-72
2021/09/20 12:29:15;;;;;;;6.97;6.28;;;;;;;;;;5014258;28;20112;-73
2021/09/20 12:31:43;;;;;;;8.00;7.20;;;;;;;;;;5031357;28;20025;-73
2021/09/20 12:34:16;;;;;;;9.82;7.22;;;;;;;;;;5014022;28;20033;-70
2021/09/20 12:36:52;;;;;;;8.48;7.57;;;;;;;;;;5024352;28;20041;-69
2021/09/20 12:39:25;;;;;;;7.65;6.53;;;;;;;;;;5028755;28;20028;-72
2021/09/20 12:42:03;;;;;;;8.03;7.23;;;;;;;;;;5031644;28;20056;-70
2021/09/20 12:44:32;;;;;;;7.82;7.03;;;;;;;;;;5032360;28;20259;-70
2021/09/20 12:47:17;;;;;;;7.88;7.03;;;;;;;;;;5029515;28;20061;-69
2021/09/20 12:49:55;;;;;;;9.10;7.60;;;;;;;;;;5013305;28;20029;-70
2021/09/20 12:52:25;;;;;;;8.43;7.63;;;;;;;;;;5031636;28;20513;-67
2021/09/20 12:54:52;;;;;;;8.00;6.85;;;;;;;;;;5011055;28;20041;-68
2021/09/20 12:57:23;;;;;;;7.93;7.13;;;;;;;;;;5028656;28;20041;-71
2021/09/20 13:00:04;;;;;;;8.35;7.25;;;;;;;;;;5008884;28;20030;-68
2021/09/20 13:02:31;;;;;;;8.38;7.57;;;;;;;;;;5028953;28;20445;-74
2021/09/20 13:04:58;;;;;;;11.07;7.60;;;;;;;;;;5014397;28;20029;-73
2021/09/20 13:07:27;;;;;;;7.80;6.75;;;;;;;;;;5011950;28;20025;-73
2021/09/20 13:10:04;;;;;;;8.45;7.20;;;;;;;;;;5018208;28;20514;-75
2021/09/20 13:12:37;;;;;;;7.75;6.95;;;;;;;;;;5002234;28;20033;-72
2021/09/20 13:15:03;;;;;;;;;;;;;;;;;;4999708;28;20014;-73
2021/09/20 13:20:11;;;;;;;10.75;7.30;;;;;;;;;;5479668;22;20103;-77
2021/09/20 13:22:50;;;;;;;7.57;6.18;;;;;;;;;;5008621;28;20030;-71
2021/09/20 13:33:19;;;;;;;8.75;7.18;;;;;;;;;;5437292;22;20057;-74
2021/09/20 13:35:53;;;;;;;10.63;6.47;;;;;;;;;;5025364;28;20065;-76
2021/09/20 13:38:21;;;;;;;;;;;;;;;;;;5012285;28;20037;-73
2021/09/20 13:40:48;;;;;;;7.55;6.63;;;;;;;;;;5012884;28;19920;-71
2021/09/20 13:43:19;;;;;;;7.47;6.43;;;;;;;;;;5012236;28;20040;-72
2021/09/20 13:45:45;;;;;;;8.02;6.57;;;;;;;;;;5031701;28;20602;-73
2021/09/20 13:48:12;;;;;;;8.32;6.45;;;;;;;;;;5030438;28;20083;-73
2021/09/20 13:53:14;;;;;;;9.70;6.85;;;;;;;;;;5277082;22;19928;-75
2021/09/20 13:55:48;;;;;;;10.77;7.57;;;;;;;;;;5055712;28;20108;-80
2021/09/20 13:58:22;;;;;;;10.15;7.63;;;;;;;;;;5059367;28;20021;-78
2021/09/20 14:01:09;;;;;;;8.13;7.10;;;;;;;;;;5030440;28;20052;-78
2021/09/20 14:03:51;;;;;;;8.90;6.70;;;;;;;;;;5073610;28;20025;-78
2021/09/20 14:06:47;;;;;;;9.27;7.13;;;;;;;;;;5033392;28;20096;-78
2021/09/20 14:12:20;;;;;;;9.32;6.07;;;;;;;;;;4958713;28;20074;-78
2021/09/20 14:14:53;;;;;;;9.70;6.25;;;;;;;;;;4977946;28;20061;-79
2021/09/20 14:18:02;;;;;;;7.32;6.00;;;;;;;;;;4968946;28;20103;-79
2021/09/20 14:20:49;;;;;;;9.98;6.40;;;;;;;;;;4960487;29;20031;-79
2021/09/20 14:23:19;;;;;;;8.38;6.00;;;;;;;;;;4961537;29;20031;-78
2021/09/20 14:29:11;;;;;;;10.07;6.10;;;;;;;;;;4948952;28;20023;-78
2021/09/20 14:32:25;;;;;;;8.68;5.97;;;;;;;;;;4974978;28;20032;-79
2021/09/20 14:35:56;;;;;;;6.97;5.85;;;;;;;;;;4899097;29;20113;-79
2021/09/20 14:38:29;;;;;;;8.88;5.60;;;;;;;;;;4876078;29;20057;-73
2021/09/20 14:40:55;;;;;;;6.97;5.32;;;;;;;;;;4871087;29;20576;-74
2021/09/20 14:43:55;;;;;;;6.75;5.25;;;;;;;;;;4862533;29;20560;-77
2021/09/20 14:46:24;;;;;;;7.43;5.47;;;;;;;;;;4900807;29;20055;-76
2021/09/20 14:48:54;;;;;;;6.30;5.53;;;;;;;;;;4912260;29;20206;-74
2021/09/20 14:51:20;;;;;;;9.05;5.47;;;;;;;;;;4939774;29;20042;-76
2021/09/20 14:54:05;;;;;;;5.93;5.25;;;;;;;;;;4939111;29;20054;-74
2021/09/20 14:56:33;;;;;;;6.82;4.97;;;;;;;;;;4936210;29;20086;-72
2021/09/20 14:58:59;;;;;;;7.40;5.10;;;;;;;;;;4936023;29;20046;-71
2021/09/20 15:01:27;;;;;;;8.35;5.53;;;;;;;;;;4942122;29;20034;-72
2021/09/20 15:03:58;;;;;;;7.85;5.57;;;;;;;;;;4956711;29;20031;-78
2021/09/20 15:06:25;;;;;;;6.97;5.90;;;;;;;;;;4958988;29;20180;-76
2021/09/20 15:08:54;;;;;;;9.50;5.90;;;;;;;;;;5368278;22;20039;-77
2021/09/20 15:11:20;;;;;;;6.53;5.35;;;;;;;;;;5060196;28;20115;-79
2021/09/20 15:13:46;;;;;;;9.30;6.25;;;;;;;;;;5043402;28;20033;-78
2021/09/20 15:16:14;;;;;;;8.40;6.07;;;;;;;;;;5063772;28;20037;-77
2021/09/20 15:18:43;;;;;;;7.20;5.88;;;;;;;;;;5057137;28;20029;-75
2021/09/20 15:21:11;;;;;;;13.52;6.65;;;;;;;;;;5061080;28;20143;-70
2021/09/20 15:23:38;;;;;;;7.53;5.95;;;;;;;;;;5061713;28;20612;-75
2021/09/20 15:26:04;;;;;;;9.15;6.20;;;;;;;;;;5059956;28;20029;-74
2021/09/20 15:28:31;;;;;;;8.27;6.70;;;;;;;;;;5063066;28;20029;-69
2021/09/20 15:30:57;;;;;;;9.50;6.60;;;;;;;;;;5056688;28;20028;-72
2021/09/20 15:33:25;;;;;;;10.52;6.90;;;;;;;;;;5061133;28;20048;-74
2021/09/20 15:35:52;;;;;;;11.57;6.80;;;;;;;;;;5057171;28;20017;-74
2021/09/20 15:38:19;;;;;;;10.52;6.57;;;;;;;;;;5060952;28;20029;-75
2021/09/20 15:40:45;;;;;;;7.75;6.20;;;;;;;;;;5067644;28;20095;-74